createdAt,value
2018-07-08T00:01:52.637Z,67.54
2018-07-08T00:04:21.842Z,67.00
2018-07-08T00:06:54.755Z,67.07
2018-07-08T00:09:23.983Z,67.57
2018-07-08T00:11:53.198Z,66.99
2018-07-08T00:14:22.451Z,66.43
2018-07-08T00:16:51.664Z,67.33
2018-07-08T00:19:20.851Z,67.64
2018-07-08T00:21:50.073Z,68.09
2018-07-08T00:24:19.330Z,67.16
2018-07-08T00:26:48.562Z,66.28
2018-07-08T00:29:17.746Z,65.16
2018-07-08T00:31:46.971Z,64.50
2018-07-08T00:34:16.163Z,65.50
2018-07-08T00:36:45.363Z,65.53
2018-07-08T00:39:14.603Z,65.68
2018-07-08T00:41:43.589Z,65.56
2018-07-08T00:44:12.797Z,65.21
2018-07-08T00:46:42.023Z,65.22
2018-07-08T00:49:11.296Z,66.75
2018-07-08T00:51:40.503Z,65.69
2018-07-08T00:54:09.727Z,65.31
2018-07-08T00:56:38.940Z,65.82
2018-07-08T00:59:08.263Z,66.54
2018-07-08T01:01:37.490Z,66.71
2018-07-08T01:04:06.709Z,66.83
2018-07-08T01:06:35.994Z,67.90
2018-07-08T01:09:06.209Z,67.28
2018-07-08T01:11:35.467Z,67.39
2018-07-08T01:14:04.655Z,66.65
2018-07-08T01:16:33.890Z,66.94
2018-07-08T01:19:03.089Z,66.42
2018-07-08T01:21:32.299Z,68.69
2018-07-08T01:24:01.515Z,66.93
2018-07-08T01:26:31.005Z,67.40
2018-07-08T01:29:00.202Z,68.25
2018-07-08T01:31:29.419Z,69.67
2018-07-08T01:33:58.671Z,68.86
2018-07-08T01:36:27.882Z,68.48
2018-07-08T01:38:57.094Z,67.30
2018-07-08T01:41:26.296Z,68.89
2018-07-08T01:43:55.594Z,69.65
2018-07-08T01:46:24.804Z,69.26
2018-07-08T01:48:54.103Z,70.42
2018-07-08T01:51:23.339Z,69.75
2018-07-08T01:53:52.830Z,69.07
2018-07-08T01:56:22.031Z,69.50
2018-07-08T01:58:51.398Z,68.56
2018-07-08T02:01:20.591Z,69.35
2018-07-08T02:03:49.856Z,68.97
2018-07-08T02:06:19.047Z,69.46
2018-07-08T02:08:48.542Z,68.11
2018-07-08T02:11:17.787Z,68.94
2018-07-08T02:13:46.786Z,67.33
2018-07-08T02:16:15.779Z,66.20
2018-07-08T02:18:45.352Z,66.38
2018-07-08T02:21:14.567Z,66.65
2018-07-08T02:23:43.951Z,67.50
2018-07-08T02:26:13.172Z,67.61
2018-07-08T02:28:42.504Z,68.23
2018-07-08T02:31:11.678Z,68.43
2018-07-08T02:33:40.895Z,68.38
2018-07-08T02:36:10.121Z,67.89
2018-07-08T02:38:39.342Z,68.80
2018-07-08T02:41:08.595Z,68.73
2018-07-08T02:43:37.817Z,69.05
2018-07-08T02:46:07.083Z,68.63
2018-07-08T02:48:36.298Z,69.24
2018-07-08T02:51:05.519Z,68.57
2018-07-08T02:53:34.726Z,67.90
2018-07-08T02:56:03.961Z,67.69
2018-07-08T02:58:33.268Z,68.64
2018-07-08T03:01:02.562Z,68.28
2018-07-08T03:03:31.902Z,67.96
2018-07-08T03:06:01.191Z,68.17
2018-07-08T03:08:30.395Z,68.79
2018-07-08T03:10:59.624Z,69.07
2018-07-08T03:13:28.937Z,69.83
2018-07-08T03:15:58.231Z,69.89
2018-07-08T03:18:27.508Z,70.08
2018-07-08T03:20:56.733Z,69.64
2018-07-08T03:23:25.931Z,70.48
2018-07-08T03:25:55.159Z,69.57
2018-07-08T03:28:24.366Z,69.74
2018-07-08T03:30:53.763Z,69.71
2018-07-08T03:33:23.193Z,71.16
2018-07-08T03:35:52.450Z,72.55
2018-07-08T03:38:22.096Z,70.86
2018-07-08T03:40:51.395Z,70.89
2018-07-08T03:43:20.948Z,70.89
2018-07-08T03:45:49.934Z,71.69
2018-07-08T03:48:19.159Z,71.88
2018-07-08T03:50:48.471Z,73.19
2018-07-08T03:53:17.686Z,72.56
2018-07-08T03:55:46.959Z,73.38
2018-07-08T03:58:16.175Z,74.02
2018-07-08T04:00:45.510Z,73.72
2018-07-08T04:03:14.724Z,74.30
2018-07-08T04:05:43.926Z,72.60
2018-07-08T04:08:13.124Z,73.46
2018-07-08T04:10:42.331Z,73.64
2018-07-08T04:13:11.554Z,73.80
2018-07-08T04:15:40.763Z,73.14
2018-07-08T04:18:10.220Z,73.38
2018-07-08T04:20:40.155Z,72.40
2018-07-08T04:23:09.529Z,72.98
2018-07-08T04:25:38.738Z,72.66
2018-07-08T04:28:07.935Z,71.59
2018-07-08T04:30:37.135Z,71.96
2018-07-08T04:33:06.491Z,72.10
2018-07-08T04:35:35.690Z,71.54
2018-07-08T04:38:04.927Z,71.51
2018-07-08T04:40:34.143Z,71.11
2018-07-08T04:43:03.366Z,69.34
2018-07-08T04:45:32.628Z,70.04
2018-07-08T04:48:01.838Z,68.35
2018-07-08T04:50:31.038Z,68.70
2018-07-08T04:53:00.237Z,67.94
2018-07-08T04:55:29.442Z,64.09
2018-07-08T04:57:58.672Z,63.05
2018-07-08T05:00:27.920Z,60.74
2018-07-08T05:02:56.882Z,64.03
2018-07-08T05:05:26.067Z,64.37
2018-07-08T05:07:55.322Z,62.70
2018-07-08T05:10:24.585Z,62.65
2018-07-08T05:12:53.545Z,64.47
2018-07-08T05:15:22.738Z,61.48
2018-07-08T05:17:51.938Z,60.21
2018-07-08T05:20:21.197Z,59.85
2018-07-08T05:22:50.377Z,58.62
2018-07-08T05:25:19.583Z,57.20
2018-07-08T05:27:48.838Z,56.30
2018-07-08T05:30:17.798Z,55.23
2018-07-08T05:32:47.027Z,53.92
2018-07-08T05:35:16.242Z,52.34
2018-07-08T05:37:45.465Z,54.59
2018-07-08T05:40:14.662Z,52.37
2018-07-08T05:42:43.879Z,52.48
2018-07-08T05:45:13.154Z,50.42
2018-07-08T05:47:42.362Z,50.68
2018-07-08T05:50:11.681Z,50.59
2018-07-08T05:52:40.822Z,51.06
2018-07-08T05:55:10.115Z,50.73
2018-07-08T05:57:39.300Z,51.96
2018-07-08T06:00:08.963Z,51.26
2018-07-08T06:02:38.194Z,49.21
2018-07-08T06:05:07.459Z,50.74
2018-07-08T06:07:36.841Z,49.30
2018-07-08T06:10:06.243Z,49.19
2018-07-08T06:12:35.568Z,49.36
2018-07-08T06:15:04.967Z,50.70
2018-07-08T06:17:34.194Z,49.61
2018-07-08T06:20:03.446Z,51.96
2018-07-08T06:22:32.678Z,51.87
2018-07-08T06:25:01.810Z,48.73
2018-07-08T06:27:31.249Z,48.10
2018-07-08T06:30:00.553Z,50.15
2018-07-08T06:32:29.597Z,50.02
2018-07-08T06:34:58.902Z,49.33
2018-07-08T06:37:28.305Z,49.11
2018-07-08T06:39:57.587Z,48.11
2018-07-08T06:42:26.948Z,48.94
2018-07-08T06:44:56.298Z,48.05
2018-07-08T06:47:25.615Z,47.23
2018-07-08T06:49:54.921Z,48.84
2018-07-08T06:52:24.331Z,51.05
2018-07-08T06:54:53.643Z,48.22
2018-07-08T06:57:22.936Z,48.48
2018-07-08T06:59:52.340Z,47.07
2018-07-08T07:02:21.610Z,45.86
2018-07-08T07:04:50.925Z,48.21
2018-07-08T07:07:20.267Z,49.91
2018-07-08T07:09:49.640Z,48.32
2018-07-08T07:12:19.859Z,47.62
2018-07-08T07:14:48.998Z,45.93
2018-07-08T07:17:18.468Z,46.50
2018-07-08T07:19:47.915Z,46.08
2018-07-08T07:22:17.242Z,47.37
2018-07-08T07:24:46.576Z,46.34
2018-07-08T07:27:15.985Z,44.23
2018-07-08T07:29:45.431Z,46.52
2018-07-08T07:32:14.530Z,46.14
2018-07-08T07:34:43.904Z,46.43
2018-07-08T07:37:13.181Z,46.60
2018-07-08T07:39:42.586Z,42.65
2018-07-08T07:42:11.985Z,42.52
2018-07-08T07:44:41.340Z,41.39
2018-07-08T07:47:10.624Z,42.14
2018-07-08T07:49:40.045Z,41.04
2018-07-08T07:52:09.320Z,39.80
2018-07-08T07:54:38.703Z,40.96
2018-07-08T07:57:08.055Z,40.25
2018-07-08T07:59:37.363Z,41.70
2018-07-08T08:02:06.982Z,42.34
2018-07-08T08:04:36.358Z,40.59
2018-07-08T08:07:05.855Z,41.88
2018-07-08T08:09:35.127Z,41.80
2018-07-08T08:12:04.483Z,37.96
2018-07-08T08:14:33.828Z,38.50
2018-07-08T08:17:03.193Z,41.07
2018-07-08T08:19:39.311Z,40.77
2018-07-08T08:22:08.625Z,41.42
2018-07-08T08:24:37.873Z,40.98
2018-07-08T08:27:07.324Z,39.31
2018-07-08T08:29:36.619Z,39.83
2018-07-08T08:32:05.968Z,40.30
2018-07-08T08:34:52.471Z,39.19
2018-07-08T08:37:23.225Z,40.85
2018-07-08T08:39:53.390Z,41.31
2018-07-08T08:42:22.518Z,38.83
2018-07-08T08:44:52.395Z,37.89
2018-07-08T08:47:22.048Z,37.97
2018-07-08T08:49:52.014Z,37.71
2018-07-08T08:52:21.383Z,38.34
2018-07-08T08:54:51.210Z,38.86
2018-07-08T08:57:20.659Z,37.28
2018-07-08T08:59:49.937Z,37.56
2018-07-08T09:02:19.331Z,36.39
2018-07-08T09:04:52.217Z,38.06
2018-07-08T09:07:22.372Z,37.48
2018-07-08T09:09:57.324Z,37.54
2018-07-08T09:12:28.916Z,38.07
2018-07-08T09:14:58.369Z,37.86
2018-07-08T09:17:27.704Z,37.18
2018-07-08T09:19:58.734Z,37.83
2018-07-08T09:22:29.196Z,38.47
2018-07-08T09:25:00.579Z,36.27
2018-07-08T09:27:31.214Z,36.20
2018-07-08T09:30:01.546Z,37.01
2018-07-08T09:32:31.063Z,38.29
2018-07-08T09:35:03.061Z,37.33
2018-07-08T09:37:32.362Z,37.88
2018-07-08T09:40:01.395Z,39.19
2018-07-08T09:42:31.151Z,38.63
2018-07-08T09:45:02.100Z,39.53
2018-07-08T09:47:33.670Z,39.10
2018-07-08T09:50:03.865Z,38.86
2018-07-08T09:52:34.919Z,36.29
2018-07-08T09:55:05.676Z,38.00
2018-07-08T09:57:35.067Z,36.31
2018-07-08T10:00:05.009Z,36.40
2018-07-08T10:02:39.494Z,37.00
2018-07-08T10:05:08.914Z,37.16
2018-07-08T10:07:38.956Z,37.62
2018-07-08T10:10:12.713Z,36.90
2018-07-08T10:12:42.640Z,35.40
2018-07-08T10:15:12.072Z,36.89
2018-07-08T10:17:41.503Z,36.98
2018-07-08T10:20:10.871Z,36.96
2018-07-08T10:22:40.561Z,38.30
2018-07-08T10:25:10.915Z,37.67
2018-07-08T10:28:15.468Z,36.76
2018-07-08T10:30:47.841Z,36.18
2018-07-08T10:33:19.500Z,37.23
2018-07-08T10:36:04.395Z,37.04
2018-07-08T10:38:35.547Z,37.24
2018-07-08T10:41:05.071Z,36.45
2018-07-08T10:43:35.830Z,35.23
2018-07-08T10:46:07.190Z,35.80
2018-07-08T10:49:09.273Z,37.46
2018-07-08T10:51:42.670Z,35.71
2018-07-08T10:54:13.464Z,36.87
2018-07-08T10:56:45.857Z,38.04
2018-07-08T10:59:16.882Z,38.23
2018-07-08T11:01:47.838Z,36.75
2018-07-08T11:04:18.836Z,37.59
2018-07-08T11:06:49.829Z,36.79
2018-07-08T11:09:20.675Z,35.71
2018-07-08T11:11:51.413Z,35.30
2018-07-08T11:14:23.733Z,36.95
2018-07-08T11:16:56.019Z,37.14
2018-07-08T11:19:28.320Z,36.79
2018-07-08T11:22:12.560Z,34.97
2018-07-08T11:24:50.686Z,34.99
2018-07-08T11:27:41.657Z,34.84
2018-07-08T11:30:17.026Z,34.34
2018-07-08T11:32:46.567Z,35.14
2018-07-08T11:35:16.273Z,34.31
2018-07-08T11:37:46.109Z,36.58
2018-07-08T11:40:15.660Z,36.10
2018-07-08T11:42:45.867Z,36.66
2018-07-08T11:45:17.059Z,36.59
2018-07-08T11:47:47.492Z,35.81
2018-07-08T11:50:17.976Z,36.30
2018-07-08T11:52:48.525Z,36.38
2018-07-08T11:55:19.395Z,38.12
2018-07-08T11:57:51.213Z,36.51
2018-07-08T12:00:26.525Z,36.07
2018-07-08T12:02:59.123Z,36.73
2018-07-08T12:05:30.480Z,35.65
2018-07-08T12:08:04.461Z,33.86
2018-07-08T12:10:35.489Z,33.98
2018-07-08T12:13:07.991Z,32.57
2018-07-08T12:15:38.190Z,32.04
2018-07-08T12:18:08.634Z,32.03
2018-07-08T12:20:39.192Z,32.47
2018-07-08T12:23:09.363Z,33.27
2018-07-08T12:25:39.480Z,31.63
2018-07-08T12:28:09.601Z,33.82
2018-07-08T12:30:39.736Z,33.11
2018-07-08T12:33:10.815Z,34.85
2018-07-08T12:35:41.006Z,34.06
2018-07-08T12:38:12.940Z,34.14
2018-07-08T12:40:42.704Z,33.82
2018-07-08T12:43:14.617Z,34.24
2018-07-08T12:45:45.556Z,34.69
2018-07-08T12:48:15.816Z,34.09
2018-07-08T12:50:48.138Z,33.63
2018-07-08T12:53:19.649Z,33.31
2018-07-08T12:55:52.079Z,31.93
2018-07-08T12:58:22.394Z,33.25
2018-07-08T13:00:52.624Z,32.80
2018-07-08T13:03:22.938Z,32.59
2018-07-08T13:05:53.146Z,31.95
2018-07-08T13:08:23.140Z,32.20
2018-07-08T13:10:53.161Z,33.18
2018-07-08T13:13:23.114Z,32.55
2018-07-08T13:15:53.190Z,32.11
2018-07-08T13:18:23.224Z,32.53
2018-07-08T13:20:53.993Z,32.98
2018-07-08T13:23:24.094Z,32.27
2018-07-08T13:25:54.098Z,32.70
2018-07-08T13:28:24.120Z,31.58
2018-07-08T13:30:54.169Z,30.77
2018-07-08T13:33:24.771Z,31.44
2018-07-08T13:35:55.021Z,31.07
2018-07-08T13:38:24.990Z,30.58
2018-07-08T13:40:55.109Z,32.67
2018-07-08T13:43:25.095Z,31.23
2018-07-08T13:45:55.464Z,31.33
2018-07-08T13:48:25.689Z,33.53
2018-07-08T13:50:55.985Z,31.55
2018-07-08T13:53:26.744Z,30.61
2018-07-08T13:55:56.937Z,30.93
2018-07-08T13:58:26.903Z,30.59
2018-07-08T14:00:56.974Z,31.40
2018-07-08T14:03:27.035Z,32.04
2018-07-08T14:05:56.921Z,32.07
2018-07-08T14:08:27.963Z,31.72
2018-07-08T14:10:57.973Z,31.40
2018-07-08T14:13:28.213Z,32.16
2018-07-08T14:15:57.866Z,30.79
2018-07-08T14:18:27.706Z,30.16
2018-07-08T14:20:57.627Z,30.41
2018-07-08T14:23:27.527Z,30.20
2018-07-08T14:25:57.429Z,31.23
2018-07-08T14:28:28.683Z,30.37
2018-07-08T14:30:58.397Z,31.07
2018-07-08T14:33:29.241Z,29.18
2018-07-08T14:35:59.056Z,29.13
2018-07-08T14:38:28.746Z,28.47
2018-07-08T14:40:58.722Z,30.50
2018-07-08T14:43:28.875Z,29.63
2018-07-08T14:46:00.094Z,30.00
2018-07-08T14:48:29.999Z,29.25
2018-07-08T14:50:59.981Z,30.72
2018-07-08T14:53:30.130Z,29.65
2018-07-08T14:55:59.999Z,28.58
2018-07-08T14:58:29.799Z,30.37
2018-07-08T15:00:59.943Z,30.08
2018-07-08T15:03:30.820Z,30.17
2018-07-08T15:06:00.655Z,30.79
2018-07-08T15:08:30.914Z,29.73
2018-07-08T15:11:00.614Z,29.60
2018-07-08T15:13:30.507Z,29.85
2018-07-08T15:16:00.659Z,28.59
2018-07-08T15:18:30.443Z,27.50
2018-07-08T15:21:00.307Z,28.87
2018-07-08T15:23:30.105Z,26.77
2018-07-08T15:26:00.273Z,27.38
2018-07-08T15:28:30.232Z,29.32
2018-07-08T15:31:01.065Z,28.31
2018-07-08T15:33:31.070Z,29.26
2018-07-08T15:36:01.219Z,28.12
2018-07-08T15:38:32.605Z,27.58
2018-07-08T15:41:02.432Z,27.79
2018-07-08T15:43:32.427Z,27.65
2018-07-08T15:46:02.273Z,27.40
2018-07-08T15:48:33.301Z,27.55
2018-07-08T15:51:03.759Z,27.04
2018-07-08T15:53:33.732Z,26.70
2018-07-08T15:56:03.722Z,25.90
2018-07-08T15:58:33.544Z,26.56
2018-07-08T16:01:03.532Z,25.68
2018-07-08T16:03:33.515Z,25.45
2018-07-08T16:06:03.810Z,26.05
2018-07-08T16:08:33.816Z,25.96
2018-07-08T16:11:03.786Z,26.47
2018-07-08T16:13:34.635Z,26.16
2018-07-08T16:16:04.712Z,26.33
2018-07-08T16:18:34.879Z,26.43
2018-07-08T16:21:05.286Z,26.89
2018-07-08T16:23:35.312Z,27.27
2018-07-08T16:26:05.089Z,26.58
2018-07-08T16:28:34.485Z,27.13
2018-07-08T16:31:04.070Z,26.31
2018-07-08T16:33:33.411Z,26.73
2018-07-08T16:36:02.786Z,27.09
2018-07-08T16:38:32.049Z,27.04
2018-07-08T16:41:01.369Z,27.92
2018-07-08T16:43:30.637Z,28.01
2018-07-08T16:46:00.794Z,27.58
2018-07-08T16:48:30.119Z,26.64
2018-07-08T16:50:59.473Z,26.48
2018-07-08T16:53:28.771Z,25.04
2018-07-08T16:55:58.100Z,23.47
2018-07-08T16:58:27.395Z,19.70
2018-07-08T17:00:56.732Z,20.06
2018-07-08T17:03:25.991Z,19.17
2018-07-08T17:05:55.351Z,18.87
2018-07-08T17:08:24.728Z,18.14
2018-07-08T17:10:53.758Z,18.80
2018-07-08T17:13:23.063Z,17.99
2018-07-08T17:15:52.415Z,18.07
2018-07-08T17:18:22.345Z,17.94
2018-07-08T17:20:51.835Z,20.11
2018-07-08T17:23:21.198Z,20.23
2018-07-08T17:25:50.633Z,21.67
2018-07-08T17:28:19.967Z,23.18
2018-07-08T17:30:49.301Z,21.60
2018-07-08T17:33:18.839Z,23.15
2018-07-08T17:35:47.848Z,23.28
2018-07-08T17:38:17.185Z,24.85
2018-07-08T17:40:46.544Z,25.34
2018-07-08T17:43:15.950Z,24.58
2018-07-08T17:45:45.343Z,25.61
2018-07-08T17:48:14.651Z,24.72
2018-07-08T17:50:44.011Z,26.40
2018-07-08T17:53:13.328Z,26.79
2018-07-08T17:55:42.681Z,26.01
2018-07-08T17:58:11.956Z,26.95
2018-07-08T18:00:41.243Z,25.86
2018-07-08T18:03:10.602Z,26.20
2018-07-08T18:05:40.139Z,26.57
2018-07-08T18:08:09.519Z,26.06
2018-07-08T18:10:38.900Z,27.05
2018-07-08T18:13:08.555Z,26.03
2018-07-08T18:15:38.560Z,26.43
2018-07-08T18:18:08.219Z,27.93
2018-07-08T18:20:38.358Z,26.76
2018-07-08T18:23:07.795Z,26.74
2018-07-08T18:25:37.140Z,26.32
2018-07-08T18:28:06.532Z,26.08
2018-07-08T18:30:36.726Z,27.32
2018-07-08T18:33:06.710Z,27.29
2018-07-08T18:35:36.104Z,27.59
2018-07-08T18:38:05.563Z,26.62
2018-07-08T18:40:34.970Z,27.81
2018-07-08T18:43:04.379Z,28.84
2018-07-08T18:45:33.750Z,29.20
2018-07-08T18:48:02.783Z,29.73
2018-07-08T18:50:32.115Z,30.08
2018-07-08T18:53:01.429Z,31.50
2018-07-08T18:55:30.778Z,30.73
2018-07-08T18:58:00.265Z,31.40
2018-07-08T19:00:29.765Z,33.06
2018-07-08T19:02:59.183Z,32.02
2018-07-08T19:05:28.479Z,32.09
2018-07-08T19:07:57.826Z,31.17
2018-07-08T19:10:27.311Z,32.12
2018-07-08T19:12:56.771Z,33.02
2018-07-08T19:15:26.271Z,32.92
2018-07-08T19:17:55.780Z,33.11
2018-07-08T19:20:25.239Z,34.11
2018-07-08T19:22:54.694Z,33.74
2018-07-08T19:25:24.272Z,34.03
2018-07-08T19:27:53.709Z,35.17
2018-07-08T19:30:23.155Z,35.86
2018-07-08T19:32:52.688Z,36.72
2018-07-08T19:35:22.205Z,39.80
2018-07-08T19:37:51.660Z,41.31
2018-07-08T19:40:21.234Z,41.25
2018-07-08T19:42:50.739Z,41.94
2018-07-08T19:45:20.372Z,43.17
2018-07-08T19:47:50.078Z,43.46
2018-07-08T19:50:19.616Z,43.42
2018-07-08T19:52:49.133Z,43.04
2018-07-08T19:55:18.590Z,43.04
2018-07-08T19:57:48.153Z,43.82
2018-07-08T20:00:17.655Z,43.96
2018-07-08T20:02:47.100Z,43.64
2018-07-08T20:05:16.658Z,45.21
2018-07-08T20:07:46.504Z,43.67
2018-07-08T20:10:16.078Z,43.99
2018-07-08T20:12:45.636Z,44.54
2018-07-08T20:15:15.127Z,44.87
2018-07-08T20:17:45.067Z,43.88
2018-07-08T20:20:15.244Z,42.92
2018-07-08T20:22:44.673Z,43.77
2018-07-08T20:25:14.413Z,44.50
2018-07-08T20:27:44.272Z,43.35
2018-07-08T20:30:13.829Z,43.40
2018-07-08T20:32:43.112Z,42.82
2018-07-08T20:35:12.519Z,43.84
2018-07-08T20:37:41.853Z,43.49
2018-07-08T20:40:11.200Z,44.12
2018-07-08T20:42:40.676Z,44.19
2018-07-08T20:45:10.139Z,44.02
2018-07-08T20:47:39.556Z,43.37
2018-07-08T20:50:08.981Z,44.34
2018-07-08T20:52:38.463Z,45.41
2018-07-08T20:55:07.947Z,44.23
2018-07-08T20:57:37.512Z,43.92
2018-07-08T21:00:06.696Z,43.96
2018-07-08T21:02:36.096Z,43.26
2018-07-08T21:05:05.461Z,43.10
2018-07-08T21:07:34.857Z,43.36
2018-07-08T21:10:04.285Z,43.30
2018-07-08T21:12:33.599Z,42.93
2018-07-08T21:15:06.310Z,43.01
2018-07-08T21:17:35.641Z,42.78
2018-07-08T21:20:05.012Z,42.73
2018-07-08T21:22:34.555Z,43.59
2018-07-08T21:25:03.903Z,42.20
2018-07-08T21:27:33.478Z,44.07
2018-07-08T21:30:03.050Z,42.79
2018-07-08T21:32:32.364Z,43.17
2018-07-08T21:35:01.655Z,44.19
2018-07-08T21:37:30.968Z,44.10
2018-07-08T21:40:00.254Z,44.24
2018-07-08T21:42:29.574Z,43.82
2018-07-08T21:44:58.881Z,43.34
2018-07-08T21:47:27.938Z,43.73
2018-07-08T21:49:57.306Z,44.07
2018-07-08T21:52:26.619Z,44.11
2018-07-08T21:54:55.999Z,44.61
2018-07-08T21:57:25.356Z,44.72
2018-07-08T21:59:54.482Z,44.05
2018-07-08T22:02:23.798Z,46.88
2018-07-08T22:04:53.031Z,45.41
2018-07-08T22:07:23.497Z,45.08
2018-07-08T22:09:54.037Z,45.39
2018-07-08T22:12:23.275Z,45.35
2018-07-08T22:14:52.238Z,44.31
2018-07-08T22:17:21.482Z,44.69
2018-07-08T22:19:50.736Z,46.92
2018-07-08T22:22:20.002Z,47.67
2018-07-08T22:24:49.244Z,49.49
2018-07-08T22:27:18.500Z,49.08
2018-07-08T22:29:47.775Z,49.70
2018-07-08T22:32:17.006Z,48.63
2018-07-08T22:34:46.392Z,49.05
2018-07-08T22:37:15.677Z,50.07
2018-07-08T22:39:44.908Z,51.09
2018-07-08T22:42:14.188Z,51.79
2018-07-08T22:44:43.443Z,50.05
2018-07-08T22:47:12.667Z,50.27
2018-07-08T22:49:41.875Z,48.85
2018-07-08T22:52:11.103Z,49.84
2018-07-08T22:54:40.342Z,48.71
2018-07-08T22:57:09.583Z,48.21
2018-07-08T22:59:55.852Z,49.32
2018-07-08T23:02:38.280Z,49.32
2018-07-08T23:05:07.512Z,48.87
2018-07-08T23:07:36.763Z,49.51
2018-07-08T23:10:05.979Z,49.36
2018-07-08T23:12:35.251Z,48.79
2018-07-08T23:15:04.611Z,49.54
2018-07-08T23:17:33.907Z,49.18
2018-07-08T23:20:03.391Z,49.04
2018-07-08T23:22:49.862Z,49.28
2018-07-08T23:25:19.073Z,48.75
2018-07-08T23:27:48.341Z,48.65
2018-07-08T23:30:17.563Z,48.87
2018-07-08T23:32:46.839Z,48.93
2018-07-08T23:35:16.161Z,49.44
2018-07-08T23:37:45.461Z,51.25
2018-07-08T23:40:14.785Z,51.95
2018-07-08T23:42:44.801Z,51.52
2018-07-08T23:45:19.489Z,51.61
2018-07-08T23:47:48.754Z,53.13
2018-07-08T23:50:18.011Z,52.51
2018-07-08T23:52:46.991Z,53.99
2018-07-08T23:55:16.248Z,53.78
2018-07-08T23:57:45.510Z,53.79
